createdAt,value
2022-11-23T00:01:42.318Z,99255.69
2022-11-23T00:06:43.980Z,99255.69
2022-11-23T00:11:46.986Z,99265.19
2022-11-23T00:16:48.697Z,99272.16
2022-11-23T00:21:50.506Z,99279.75
2022-11-23T00:26:56.864Z,99276.84
2022-11-23T00:31:58.597Z,99286.34
2022-11-23T00:37:00.326Z,99289.25
2022-11-23T00:42:02.037Z,99282.13
2022-11-23T00:47:04.956Z,99282.31
2022-11-23T00:52:09.210Z,99289.06
2022-11-23T00:57:10.846Z,99287.81
2022-11-23T01:02:13.534Z,99298.31
2022-11-23T01:07:15.164Z,99291.63
2022-11-23T01:12:16.762Z,99292.25
2022-11-23T01:17:22.388Z,99300.88
2022-11-23T01:22:24.074Z,99305.50
2022-11-23T01:27:25.644Z,99301.28
2022-11-23T01:32:28.840Z,99309.22
2022-11-23T01:37:32.075Z,99304.59
2022-11-23T01:42:54.806Z,99303.09
2022-11-23T01:47:56.587Z,99309.81
2022-11-23T01:52:58.561Z,99304.59
2022-11-23T01:58:02.390Z,99306.09
2022-11-23T02:03:07.365Z,99304.16
2022-11-23T02:08:10.828Z,99317.88
2022-11-23T02:13:14.026Z,99311.56
2022-11-23T02:18:19.804Z,99323.16
2022-11-23T02:23:33.064Z,99329.94
2022-11-23T02:28:41.817Z,99322.75
2022-11-23T02:33:43.647Z,99324.28
2022-11-23T02:38:45.469Z,99319.19
2022-11-23T02:43:51.758Z,99319.00
2022-11-23T02:48:53.344Z,99319.84
2022-11-23T02:53:54.957Z,99331.63
2022-11-23T02:58:56.569Z,99334.34
2022-11-23T03:03:58.154Z,99341.34
2022-11-23T03:09:03.422Z,99341.53
2022-11-23T03:14:05.779Z,99338.38
2022-11-23T03:19:16.635Z,99337.75
2022-11-23T03:24:18.750Z,99332.53
2022-11-23T03:29:26.350Z,99338.38
2022-11-23T03:34:29.575Z,99340.69
2022-11-23T03:39:31.572Z,99339.81
2022-11-23T03:44:36.404Z,99343.63
2022-11-23T03:49:39.708Z,99339.59
2022-11-23T03:54:43.318Z,99345.31
2022-11-23T03:59:46.100Z,99342.34
2022-11-23T04:04:48.812Z,99350.53
2022-11-23T04:10:20.285Z,99337.25
2022-11-23T04:15:48.123Z,99349.25
2022-11-23T04:20:49.806Z,99344.16
2022-11-23T04:25:53.430Z,99355.94
2022-11-23T04:30:55.465Z,99360.97
2022-11-23T04:35:58.116Z,99358.91
2022-11-23T04:41:00.238Z,99362.50
2022-11-23T04:46:02.666Z,99361.69
2022-11-23T04:51:05.672Z,99354.50
2022-11-23T04:56:11.853Z,99357.88
2022-11-23T05:01:15.594Z,99356.84
2022-11-23T05:06:35.928Z,99352.47
2022-11-23T05:11:38.718Z,99355.59
2022-11-23T05:16:41.962Z,99361.72
2022-11-23T05:21:44.329Z,99358.53
2022-11-23T05:26:48.236Z,99358.59
2022-11-23T05:31:52.675Z,99363.03
2022-11-23T05:36:54.487Z,99371.25
2022-11-23T05:41:58.422Z,99368.91
2022-11-23T05:47:27.739Z,99369.56
2022-11-23T05:52:29.613Z,99371.88
2022-11-23T05:57:31.479Z,99369.16
2022-11-23T06:02:38.126Z,99365.84
2022-11-23T06:07:42.704Z,99378.00
2022-11-23T06:12:47.697Z,99378.47
2022-11-23T06:17:52.279Z,99363.91
2022-11-23T06:22:56.709Z,99370.59
2022-11-23T06:28:01.520Z,99374.56
2022-11-23T06:33:10.950Z,99385.91
2022-11-23T06:38:18.597Z,99381.44
2022-11-23T06:43:20.551Z,99377.00
2022-11-23T06:48:24.706Z,99384.56
2022-11-23T06:53:28.432Z,99380.97
2022-11-23T06:58:35.324Z,99395.56
2022-11-23T07:03:39.734Z,99395.50
2022-11-23T07:08:54.774Z,99402.03
2022-11-23T07:14:14.237Z,99408.06
2022-11-23T07:19:20.258Z,99427.81
2022-11-23T07:24:24.014Z,99412.69
2022-11-23T07:29:25.806Z,99432.50
2022-11-23T07:34:30.473Z,99436.94
2022-11-23T07:39:55.537Z,99432.31
2022-11-23T07:44:55.846Z,99439.47
2022-11-23T07:49:57.584Z,99433.34
2022-11-23T07:55:05.914Z,99448.47
2022-11-23T08:00:09.442Z,99458.97
2022-11-23T08:05:14.380Z,99453.56
2022-11-23T08:10:23.213Z,99451.13
2022-11-23T08:15:25.602Z,99441.69
2022-11-23T08:20:34.185Z,99458.97
2022-11-23T08:25:35.855Z,99451.13
2022-11-23T08:30:38.312Z,99464.69
2022-11-23T08:35:41.603Z,99466.53
2022-11-23T08:40:52.586Z,99465.28
2022-11-23T08:46:06.689Z,99465.28
2022-11-23T08:51:11.548Z,99457.31
2022-11-23T08:56:13.210Z,99455.63
2022-11-23T09:01:16.360Z,99447.38
2022-11-23T09:06:18.029Z,99439.75
2022-11-23T09:11:19.643Z,99435.44
2022-11-23T09:16:22.413Z,99433.53
2022-11-23T09:21:29.334Z,99415.03
2022-11-23T09:26:37.705Z,99408.53
2022-11-23T09:31:39.461Z,99392.28
2022-11-23T09:36:41.057Z,99387.94
2022-11-23T09:42:01.254Z,99381.00
2022-11-23T09:47:15.956Z,99376.00
2022-11-23T09:52:22.492Z,99378.34
2022-11-23T09:57:28.418Z,99370.75
2022-11-23T10:02:32.157Z,99371.44
2022-11-23T10:08:02.594Z,99370.88
2022-11-23T10:13:13.563Z,99382.81
2022-11-23T10:18:38.861Z,99379.53
2022-11-23T10:23:54.096Z,99380.59
2022-11-23T10:29:07.165Z,99384.00
2022-11-23T10:34:12.116Z,99376.00
2022-11-23T15:12:52.922Z,99327.34
2022-11-23T15:18:01.974Z,99338.50
2022-11-23T15:23:05.413Z,99352.03
2022-11-23T15:28:17.071Z,99346.75
2022-11-23T15:33:21.299Z,99350.53
2022-11-23T15:38:24.063Z,99342.72
2022-11-23T15:43:25.894Z,99352.88
2022-11-23T15:48:32.958Z,99361.06
2022-11-23T15:53:49.106Z,99362.97
2022-11-23T15:58:53.241Z,99371.19
2022-11-23T16:04:04.711Z,99377.50
2022-11-23T16:09:51.243Z,99382.97
2022-11-23T16:14:56.237Z,99393.13
2022-11-23T16:20:02.080Z,99410.63
2022-11-23T16:25:08.886Z,99406.25
2022-11-23T16:30:35.159Z,99411.91
2022-11-23T16:35:36.833Z,99427.75
2022-11-23T16:40:42.589Z,99428.59
2022-11-23T16:45:46.802Z,99442.28
2022-11-23T16:50:48.648Z,99443.34
2022-11-23T16:55:53.226Z,99453.44
2022-11-23T17:00:57.140Z,99458.69
2022-11-23T17:05:58.798Z,99468.63
2022-11-23T17:11:01.529Z,99486.50
2022-11-23T17:16:03.480Z,99494.50
2022-11-23T17:21:05.261Z,99514.53
2022-11-23T17:26:18.412Z,99514.13
2022-11-23T17:31:21.721Z,99508.63
2022-11-23T18:52:14.017Z,99614.97
2022-11-23T18:57:16.952Z,99621.69
2022-11-23T19:02:19.737Z,99631.31
2022-11-23T19:07:26.647Z,99626.69
2022-11-23T19:12:30.933Z,99638.88
2022-11-23T19:17:33.202Z,99641.81
2022-11-23T19:22:36.091Z,99652.66
2022-11-23T19:27:37.813Z,99654.94
2022-11-23T19:32:39.409Z,99660.13
2022-11-23T21:09:33.079Z,99763.94
2022-11-23T21:14:35.200Z,99766.59
2022-11-23T21:19:39.571Z,99779.41
2022-11-23T21:24:43.229Z,99788.84
2022-11-23T21:29:45.071Z,99786.94
2022-11-23T21:34:47.595Z,99789.91
2022-11-23T21:39:52.843Z,99792.81
2022-11-23T21:44:57.652Z,99812.25
2022-11-23T21:49:59.672Z,99809.63
2022-11-23T21:55:04.205Z,99823.31
2022-11-23T22:00:08.104Z,99826.72
2022-11-23T22:05:15.829Z,99823.91
2022-11-23T22:10:18.085Z,99832.59
2022-11-23T22:15:20.031Z,99839.59
2022-11-23T22:20:21.913Z,99842.91
2022-11-23T22:25:23.839Z,99852.50
2022-11-23T22:30:25.740Z,99840.91
2022-11-23T22:35:27.634Z,99867.78
2022-11-23T22:40:32.782Z,99872.22
2022-11-23T22:45:34.753Z,99866.75
2022-11-23T22:51:04.841Z,99857.50
2022-11-23T22:56:11.975Z,99877.69
2022-11-23T23:01:16.420Z,99884.72
2022-11-23T23:06:20.251Z,99886.88
2022-11-23T23:11:22.980Z,99889.38
2022-11-23T23:16:25.978Z,99881.31
2022-11-23T23:21:28.795Z,99885.38
2022-11-23T23:26:30.567Z,99879.06
2022-11-23T23:31:32.376Z,99877.84
2022-11-23T23:36:35.951Z,99868.56
2022-11-23T23:41:37.796Z,99871.03
2022-11-23T23:46:39.688Z,99883.91
2022-11-23T23:51:41.536Z,99895.81
2022-11-23T23:56:43.438Z,99920.75
